Dunlay, Texas
Current Conditions -  °F | °C
As of 5:51 PM on Saturday 25 Oct 2014 (Local Time) from KHDO Reporting Station
Clear Clear  
Wind Chill: 83°   Ceiling: Unl
Heat Index: 83°   Visibility: 10mi
Dew Point: 53°   Wind: 6mph
Humidity: 36%   Direction: 140°SE
Pressure: 30.09"   Gusts: NA
Location:  29.4252°N, 99.1005°W
Report Text: KHDO 252251Z AUTO 14005KT 10SM CLR 28/12 A3009 RMK AO2 SLP179 T02830117
Loading
Personal Weather Stations






























Interactive Weather Map
Tropical Storm Tracking
New forecast layout! Learn more

10-Day Weather Forecast

Advertisements
Track Severe Weather on mobile